Time;durP1;ratioP1;P1;durP2;ratioP2;P2;SDS_P1;SDS_P2;PMS_P1;PMS_P2;Temp;Humidity;BMP_temperature;BMP_pressure;BME280_temperature;BME280_humidity;BME280_pressure;Samples;Min_cycle;Max_cycle;Signal;HPM_P1;HPM_P2
2022/09/07 00:01:06;;;;;;;10.98;7.50;;;;;;;;;;5025027;28;20124;-59
2022/09/07 00:03:32;;;;;;;12.43;7.35;;;;;;;;;;5032596;28;20060;-60
2022/09/07 00:05:58;;;;;;;11.80;7.13;;;;;;;;;;5030777;28;20055;-59
2022/09/07 00:08:26;;;;;;;15.13;8.27;;;;;;;;;;5025383;28;20092;-59
2022/09/07 00:10:53;;;;;;;8.40;6.97;;;;;;;;;;5023719;28;20085;-59
2022/09/07 00:13:19;;;;;;;9.48;7.78;;;;;;;;;;5024227;28;20053;-59
2022/09/07 00:15:45;;;;;;;10.68;7.35;;;;;;;;;;5024598;28;20499;-59
2022/09/07 00:18:11;;;;;;;14.88;8.05;;;;;;;;;;5024639;28;20133;-59
2022/09/07 00:20:38;;;;;;;11.77;7.50;;;;;;;;;;5023778;28;20130;-59
2022/09/07 00:23:04;;;;;;;14.85;7.85;;;;;;;;;;5024752;28;20120;-60
2022/09/07 00:25:30;;;;;;;10.20;7.05;;;;;;;;;;5024588;28;20045;-60
2022/09/07 00:27:56;;;;;;;13.48;8.18;;;;;;;;;;5024281;28;20128;-59
2022/09/07 00:30:23;;;;;;;12.38;8.23;;;;;;;;;;5024602;28;20494;-59
2022/09/07 00:32:49;;;;;;;11.18;7.70;;;;;;;;;;5024832;28;20476;-59
2022/09/07 00:35:15;;;;;;;14.25;7.43;;;;;;;;;;5023975;28;20063;-59
2022/09/07 00:37:41;;;;;;;11.63;7.88;;;;;;;;;;5024555;28;20507;-59
2022/09/07 00:40:08;;;;;;;21.40;7.95;;;;;;;;;;5024404;28;20080;-59
2022/09/07 00:42:34;;;;;;;12.52;7.63;;;;;;;;;;5023698;28;20111;-60
2022/09/07 00:45:06;;;;;;;15.13;7.65;;;;;;;;;;5024606;28;20107;-60
2022/09/07 00:47:36;;;;;;;18.33;8.40;;;;;;;;;;5023375;28;20572;-60
2022/09/07 00:50:05;;;;;;;13.20;7.75;;;;;;;;;;5023486;28;20099;-60
2022/09/07 00:52:32;;;;;;;14.40;8.63;;;;;;;;;;5023718;28;20039;-59
2022/09/07 00:55:00;;;;;;;13.55;8.68;;;;;;;;;;5031934;28;20037;-59
2022/09/07 00:57:27;;;;;;;;;;;;;;;;;;5030071;28;20103;-59
2022/09/07 00:59:54;;;;;;;13.45;9.10;;;;;;;;;;5029254;28;20374;-59
2022/09/07 01:02:21;;;;;;;14.43;9.63;;;;;;;;;;5023777;28;20736;-59
2022/09/07 01:04:49;;;;;;;16.33;9.57;;;;;;;;;;5023054;28;20068;-59
2022/09/07 01:09:46;;;;;;;19.48;10.13;;;;;;;;;;5030383;23;20060;-59
2022/09/07 01:12:12;;;;;;;24.75;11.57;;;;;;;;;;5042516;28;20470;-59
2022/09/07 01:14:41;;;;;;;21.30;11.40;;;;;;;;;;5043266;28;20045;-59
2022/09/07 01:17:23;;;;;;;18.70;12.10;;;;;;;;;;5043086;28;20430;-59
2022/09/07 01:20:00;;;;;;;20.55;11.85;;;;;;;;;;5030146;28;20136;-59
2022/09/07 01:22:45;;;;;;;19.10;11.40;;;;;;;;;;5044181;28;20041;-59
2022/09/07 01:25:22;;;;;;;18.10;11.43;;;;;;;;;;5043415;28;20110;-59
2022/09/07 01:28:01;;;;;;;16.92;10.77;;;;;;;;;;5042382;28;20045;-59
2022/09/07 01:30:29;;;;;;;18.90;12.43;;;;;;;;;;5043723;28;20132;-58
2022/09/07 01:33:03;;;;;;;22.05;14.63;;;;;;;;;;5042689;28;20044;-59
2022/09/07 01:35:36;;;;;;;18.92;13.10;;;;;;;;;;5042885;28;20606;-60
2022/09/07 01:38:09;;;;;;;17.15;12.88;;;;;;;;;;5043107;28;20041;-59
2022/09/07 01:40:45;;;;;;;17.55;12.45;;;;;;;;;;5043174;28;20128;-59
2022/09/07 01:43:18;;;;;;;20.15;12.43;;;;;;;;;;5041582;28;20064;-59
2022/09/07 01:45:45;;;;;;;22.15;12.88;;;;;;;;;;5042564;28;20045;-59
2022/09/07 01:48:14;;;;;;;21.23;13.30;;;;;;;;;;5042657;28;20051;-58
2022/09/07 01:50:46;;;;;;;20.00;12.50;;;;;;;;;;5042871;28;20049;-59
2022/09/07 01:53:18;;;;;;;16.00;12.32;;;;;;;;;;5041903;28;20071;-58
2022/09/07 01:55:46;;;;;;;19.05;12.10;;;;;;;;;;5042631;28;20582;-58
2022/09/07 01:58:20;;;;;;;21.08;12.52;;;;;;;;;;5035965;28;20056;-59
2022/09/07 02:00:47;;;;;;;15.02;10.80;;;;;;;;;;5022823;28;20048;-58
2022/09/07 02:03:16;;;;;;;15.50;11.93;;;;;;;;;;5022678;28;20045;-59
2022/09/07 02:05:46;;;;;;;13.23;10.75;;;;;;;;;;5021899;28;20042;-59
2022/09/07 02:08:13;;;;;;;15.85;11.00;;;;;;;;;;5022416;28;20176;-59
2022/09/07 02:10:44;;;;;;;12.50;8.23;;;;;;;;;;5021154;28;20052;-59
2022/09/07 02:13:19;;;;;;;14.93;9.18;;;;;;;;;;5022015;28;20045;-59
2022/09/07 02:15:58;;;;;;;14.98;9.32;;;;;;;;;;5022211;28;20466;-59
2022/09/07 02:18:25;;;;;;;12.43;8.68;;;;;;;;;;5022473;28;20045;-59
2022/09/07 02:20:54;;;;;;;13.80;9.07;;;;;;;;;;5040827;28;20052;-58
2022/09/07 02:23:22;;;;;;;12.75;8.50;;;;;;;;;;5042162;28;20430;-58
2022/09/07 02:25:52;;;;;;;12.25;9.13;;;;;;;;;;5042068;28;20047;-59
2022/09/07 02:28:21;;;;;;;13.32;8.63;;;;;;;;;;5040997;28;20122;-59
2022/09/07 02:30:47;;;;;;;12.88;8.60;;;;;;;;;;5041399;28;20120;-59
2022/09/07 02:33:14;;;;;;;14.90;9.27;;;;;;;;;;5042349;28;20123;-59
2022/09/07 02:35:40;;;;;;;11.20;9.02;;;;;;;;;;5041668;28;20095;-59
2022/09/07 02:38:06;;;;;;;11.32;8.68;;;;;;;;;;5042098;28;20054;-59
2022/09/07 02:40:33;;;;;;;10.70;7.78;;;;;;;;;;5040527;28;20053;-59
2022/09/07 02:43:00;;;;;;;12.73;8.93;;;;;;;;;;5040399;28;20044;-59
2022/09/07 02:45:27;;;;;;;12.05;7.05;;;;;;;;;;5042388;28;20084;-59
2022/09/07 02:48:09;;;;;;;10.25;7.18;;;;;;;;;;5041738;28;20491;-58
2022/09/07 02:50:42;;;;;;;9.43;7.03;;;;;;;;;;5041569;28;20040;-59
2022/09/07 02:53:08;;;;;;;8.55;6.13;;;;;;;;;;5041860;28;20692;-59
2022/09/07 02:55:34;;;;;;;9.02;6.65;;;;;;;;;;5041571;28;20055;-58
2022/09/07 02:58:03;;;;;;;9.68;6.13;;;;;;;;;;5033210;28;20049;-59
2022/09/07 03:00:31;;;;;;;9.20;6.50;;;;;;;;;;5041178;28;20041;-59
2022/09/07 03:02:57;;;;;;;9.68;6.00;;;;;;;;;;5042179;28;20171;-59
2022/09/07 03:05:27;;;;;;;7.70;5.75;;;;;;;;;;5036946;28;20453;-59
2022/09/07 03:07:57;;;;;;;9.40;6.50;;;;;;;;;;5039099;28;20052;-59
2022/09/07 03:10:23;;;;;;;7.45;5.88;;;;;;;;;;5042105;28;20079;-59
2022/09/07 03:12:50;;;;;;;13.93;6.38;;;;;;;;;;5023035;28;20103;-59
2022/09/07 03:15:19;;;;;;;8.07;6.25;;;;;;;;;;5030440;28;20410;-59
2022/09/07 03:17:45;;;;;;;12.02;6.18;;;;;;;;;;5040523;28;20570;-59
2022/09/07 03:20:12;;;;;;;8.02;5.45;;;;;;;;;;5022211;28;20041;-59
2022/09/07 03:22:38;;;;;;;8.70;6.35;;;;;;;;;;5021270;28;20529;-59
2022/09/07 03:25:05;;;;;;;10.70;6.70;;;;;;;;;;5021900;28;20037;-59
2022/09/07 03:27:32;;;;;;;8.43;5.70;;;;;;;;;;5021028;28;20844;-59
2022/09/07 03:29:58;;;;;;;11.05;6.32;;;;;;;;;;5023503;28;20116;-59
2022/09/07 03:32:25;;;;;;;10.73;6.78;;;;;;;;;;5035470;28;20049;-59
2022/09/07 03:34:51;;;;;;;9.15;6.43;;;;;;;;;;5045130;28;20124;-59
2022/09/07 03:37:17;;;;;;;8.23;6.32;;;;;;;;;;5037412;28;20479;-59
2022/09/07 03:39:43;;;;;;;9.65;6.35;;;;;;;;;;5025453;28;20047;-59
2022/09/07 03:42:09;;;;;;;8.88;6.50;;;;;;;;;;5024759;28;20045;-58
2022/09/07 03:44:36;;;;;;;9.55;6.68;;;;;;;;;;5025216;28;20522;-59
2022/09/07 03:47:02;;;;;;;9.93;7.03;;;;;;;;;;5025021;28;20033;-59
2022/09/07 03:49:28;;;;;;;13.38;7.40;;;;;;;;;;5025835;28;20051;-59
2022/09/07 03:51:54;;;;;;;11.20;7.53;;;;;;;;;;5025241;28;20034;-59
2022/09/07 03:54:21;;;;;;;10.88;6.72;;;;;;;;;;5024811;28;20053;-58
2022/09/07 03:56:47;;;;;;;9.00;6.93;;;;;;;;;;5024356;28;20046;-59
2022/09/07 03:59:13;;;;;;;12.27;8.13;;;;;;;;;;5039308;28;20033;-59
2022/09/07 04:01:39;;;;;;;11.43;7.88;;;;;;;;;;5025064;28;20072;-59
2022/09/07 04:04:05;;;;;;;11.60;8.07;;;;;;;;;;5025041;28;20158;-59
2022/09/07 04:06:32;;;;;;;12.65;8.77;;;;;;;;;;5034067;28;20494;-60
2022/09/07 04:09:05;;;;;;;10.95;8.23;;;;;;;;;;5044280;28;20059;-59
2022/09/07 04:11:31;;;;;;;12.10;8.68;;;;;;;;;;5035659;28;20137;-59
2022/09/07 04:13:57;;;;;;;13.32;9.13;;;;;;;;;;5023742;28;20041;-58
2022/09/07 04:16:24;;;;;;;12.88;9.77;;;;;;;;;;5025173;28;20041;-58
2022/09/07 04:18:53;;;;;;;12.45;8.90;;;;;;;;;;5024830;28;20049;-59
2022/09/07 04:21:20;;;;;;;14.23;9.95;;;;;;;;;;5024497;28;20085;-59
2022/09/07 04:23:46;;;;;;;14.07;9.85;;;;;;;;;;5024456;28;20045;-59
2022/09/07 04:26:14;;;;;;;12.15;9.95;;;;;;;;;;5023774;28;20044;-59
2022/09/07 04:28:40;;;;;;;14.98;11.15;;;;;;;;;;5024617;28;20043;-59
2022/09/07 04:31:06;;;;;;;15.98;9.88;;;;;;;;;;5024605;28;20041;-59
2022/09/07 04:33:33;;;;;;;12.82;9.75;;;;;;;;;;5024052;28;20050;-59
2022/09/07 04:35:59;;;;;;;12.57;9.88;;;;;;;;;;5024799;28;20045;-61
2022/09/07 04:38:26;;;;;;;14.38;9.88;;;;;;;;;;5024236;28;20041;-59
2022/09/07 04:41:00;;;;;;;16.85;11.40;;;;;;;;;;5022895;28;20122;-59
2022/09/07 04:43:27;;;;;;;16.17;10.80;;;;;;;;;;5023448;28;20053;-59
2022/09/07 04:45:53;;;;;;;23.67;11.40;;;;;;;;;;5024131;28;20212;-59
2022/09/07 04:48:19;;;;;;;16.15;11.63;;;;;;;;;;5022688;28;20515;-59
2022/09/07 04:50:45;;;;;;;15.98;11.02;;;;;;;;;;5023203;28;20134;-59
2022/09/07 04:53:11;;;;;;;15.15;11.70;;;;;;;;;;5024215;28;20117;-59
2022/09/07 04:55:38;;;;;;;15.27;11.18;;;;;;;;;;5022963;28;20147;-59
2022/09/07 04:58:04;;;;;;;16.98;11.98;;;;;;;;;;5024106;28;20641;-59
2022/09/07 05:00:30;;;;;;;14.77;11.93;;;;;;;;;;5023963;28;20136;-59
2022/09/07 05:02:57;;;;;;;20.77;13.07;;;;;;;;;;5024402;28;20046;-59
2022/09/07 05:05:23;;;;;;;18.10;11.95;;;;;;;;;;5023539;28;20045;-59
2022/09/07 05:07:49;;;;;;;20.23;13.85;;;;;;;;;;5036204;28;20053;-59
2022/09/07 05:10:15;;;;;;;17.42;12.02;;;;;;;;;;5023902;28;20128;-59
2022/09/07 05:12:41;;;;;;;17.45;12.90;;;;;;;;;;5026800;28;20044;-59
2022/09/07 05:15:07;;;;;;;17.45;13.00;;;;;;;;;;5043269;28;20044;-59
2022/09/07 05:17:34;;;;;;;18.13;13.55;;;;;;;;;;5041772;28;20202;-59
2022/09/07 05:20:00;;;;;;;19.50;13.63;;;;;;;;;;5038977;28;20040;-59
2022/09/07 05:22:26;;;;;;;21.00;14.55;;;;;;;;;;5043372;28;20079;-59
2022/09/07 05:24:52;;;;;;;18.77;13.93;;;;;;;;;;5043620;28;20064;-59
2022/09/07 05:27:18;;;;;;;19.15;13.77;;;;;;;;;;5042835;28;20037;-59
2022/09/07 05:29:45;;;;;;;22.10;14.50;;;;;;;;;;5040106;28;20036;-58
2022/09/07 05:32:12;;;;;;;22.13;14.10;;;;;;;;;;5041306;28;20056;-58
2022/09/07 05:34:39;;;;;;;22.02;15.73;;;;;;;;;;5030345;28;20033;-59
2022/09/07 05:37:06;;;;;;;26.27;14.82;;;;;;;;;;5041381;28;20096;-59
2022/09/07 05:39:32;;;;;;;22.55;14.80;;;;;;;;;;5042722;28;20045;-59
2022/09/07 05:41:58;;;;;;;21.77;15.77;;;;;;;;;;5041844;28;20049;-59
2022/09/07 05:44:25;;;;;;;22.13;14.93;;;;;;;;;;5042163;28;20043;-59
2022/09/07 05:46:51;;;;;;;22.70;15.68;;;;;;;;;;5042314;28;20044;-58
2022/09/07 05:49:17;;;;;;;25.40;15.80;;;;;;;;;;5030206;28;20112;-59
2022/09/07 05:51:43;;;;;;;23.40;15.10;;;;;;;;;;5031684;28;20036;-59
2022/09/07 05:54:10;;;;;;;22.80;15.40;;;;;;;;;;5040402;28;20044;-59
2022/09/07 05:56:37;;;;;;;21.40;16.10;;;;;;;;;;5039528;28;20037;-59
2022/09/07 05:59:03;;;;;;;23.85;15.73;;;;;;;;;;5039412;28;20052;-59
2022/09/07 06:01:29;;;;;;;26.13;17.42;;;;;;;;;;5038131;28;20772;-59
2022/09/07 06:03:55;;;;;;;25.48;16.42;;;;;;;;;;5040793;28;20072;-58
2022/09/07 06:06:22;;;;;;;23.38;16.92;;;;;;;;;;5040586;28;20072;-59
2022/09/07 06:08:49;;;;;;;25.02;17.42;;;;;;;;;;5038659;28;20083;-59
2022/09/07 06:11:17;;;;;;;26.90;17.38;;;;;;;;;;5039447;28;20045;-58
2022/09/07 06:13:43;;;;;;;27.45;17.27;;;;;;;;;;5039784;28;20150;-59
2022/09/07 06:16:11;;;;;;;25.73;16.88;;;;;;;;;;5040945;28;20075;-60
2022/09/07 06:18:38;;;;;;;24.30;16.80;;;;;;;;;;5040023;28;20279;-60
2022/09/07 06:21:04;;;;;;;24.25;16.70;;;;;;;;;;5038208;28;20045;-59
2022/09/07 06:23:31;;;;;;;24.25;17.35;;;;;;;;;;5040338;28;20044;-60
2022/09/07 06:25:57;;;;;;;28.95;17.65;;;;;;;;;;5039575;28;20047;-59
2022/09/07 06:28:29;;;;;;;24.52;18.65;;;;;;;;;;5039837;28;20041;-59
2022/09/07 06:30:59;;;;;;;25.65;18.02;;;;;;;;;;5039867;28;20143;-60
2022/09/07 06:33:25;;;;;;;26.00;18.17;;;;;;;;;;5039097;28;20041;-59
2022/09/07 06:35:58;;;;;;;32.03;19.73;;;;;;;;;;5040194;28;20693;-59
2022/09/07 06:38:25;;;;;;;28.95;20.73;;;;;;;;;;5040111;28;20049;-59
2022/09/07 06:40:51;;;;;;;34.15;20.90;;;;;;;;;;5038517;28;20041;-60
2022/09/07 06:43:17;;;;;;;32.78;20.85;;;;;;;;;;5039892;28;20533;-60
2022/09/07 06:45:50;;;;;;;30.55;20.58;;;;;;;;;;5039391;28;20116;-59
2022/09/07 06:48:16;;;;;;;30.10;21.10;;;;;;;;;;5040720;28;20072;-60
2022/09/07 06:50:42;;;;;;;30.05;20.63;;;;;;;;;;5040817;28;20036;-60
2022/09/07 06:53:08;;;;;;;33.75;20.92;;;;;;;;;;5040859;28;20041;-60
2022/09/07 06:55:42;;;;;;;31.88;21.42;;;;;;;;;;5039906;28;20549;-60
2022/09/07 06:58:08;;;;;;;33.08;20.83;;;;;;;;;;5038920;28;20033;-60
2022/09/07 07:00:34;;;;;;;32.95;20.83;;;;;;;;;;5040817;28;20049;-60
2022/09/07 07:03:00;;;;;;;34.00;21.20;;;;;;;;;;5041327;28;20059;-60
2022/09/07 07:05:26;;;;;;;31.50;21.80;;;;;;;;;;5045403;28;20138;-60
2022/09/07 07:07:52;;;;;;;30.80;20.50;;;;;;;;;;5044512;28;20045;-59
2022/09/07 07:10:19;;;;;;;34.67;22.08;;;;;;;;;;5042993;28;20553;-60
2022/09/07 07:12:45;;;;;;;31.02;20.65;;;;;;;;;;5044173;28;20072;-59
2022/09/07 07:15:11;;;;;;;32.60;21.48;;;;;;;;;;5044610;28;20048;-60
2022/09/07 07:17:37;;;;;;;35.00;22.15;;;;;;;;;;5044187;28;20049;-60
2022/09/07 07:20:04;;;;;;;30.80;20.92;;;;;;;;;;5044550;28;20045;-59
2022/09/07 07:22:30;;;;;;;33.53;22.30;;;;;;;;;;5042966;28;20049;-60
2022/09/07 07:24:56;;;;;;;32.90;21.02;;;;;;;;;;5027144;28;20041;-60
2022/09/07 07:27:22;;;;;;;34.83;23.02;;;;;;;;;;5044100;28;20187;-60
2022/09/07 07:29:48;;;;;;;42.15;22.83;;;;;;;;;;5044373;28;20037;-60
2022/09/07 07:32:14;;;;;;;38.47;22.75;;;;;;;;;;5044452;28;20550;-60
2022/09/07 07:35:00;;;;;;;36.10;23.08;;;;;;;;;;5044121;28;20049;-59
2022/09/07 07:37:26;;;;;;;35.88;22.00;;;;;;;;;;5044472;28;20098;-60
2022/09/07 07:39:52;;;;;;;32.03;22.70;;;;;;;;;;5043478;28;20068;-60
2022/09/07 07:42:18;;;;;;;36.47;22.75;;;;;;;;;;5043108;28;20522;-59
2022/09/07 07:44:45;;;;;;;33.42;22.35;;;;;;;;;;5042581;28;20047;-60
2022/09/07 07:47:11;;;;;;;31.67;22.27;;;;;;;;;;5043686;28;20037;-60
2022/09/07 07:49:37;;;;;;;31.95;21.83;;;;;;;;;;5044394;28;20048;-60
2022/09/07 07:52:05;;;;;;;33.40;21.55;;;;;;;;;;5041720;28;20071;-59
2022/09/07 07:54:35;;;;;;;30.95;22.13;;;;;;;;;;5043729;28;20053;-60
2022/09/07 07:57:01;;;;;;;31.45;21.85;;;;;;;;;;5043183;28;20127;-59
2022/09/07 07:59:27;;;;;;;31.83;20.70;;;;;;;;;;5044357;28;20130;-59
2022/09/07 08:01:54;;;;;;;30.73;19.40;;;;;;;;;;5043868;28;20044;-59
2022/09/07 08:04:20;;;;;;;29.17;19.40;;;;;;;;;;5044287;28;20053;-60
2022/09/07 08:06:46;;;;;;;29.48;17.90;;;;;;;;;;5043789;28;20611;-59
2022/09/07 08:09:12;;;;;;;29.42;19.27;;;;;;;;;;5038043;28;20127;-60
2022/09/07 08:11:39;;;;;;;34.03;19.92;;;;;;;;;;5042675;28;20055;-60
2022/09/07 08:14:07;;;;;;;27.20;18.27;;;;;;;;;;5042437;28;20041;-59
2022/09/07 08:16:35;;;;;;;27.88;17.95;;;;;;;;;;5041773;28;20075;-60
2022/09/07 08:19:01;;;;;;;27.17;17.33;;;;;;;;;;5042478;28;20490;-60
2022/09/07 08:21:27;;;;;;;33.03;16.83;;;;;;;;;;5040641;28;20514;-60
2022/09/07 08:23:53;;;;;;;26.17;15.82;;;;;;;;;;5042787;28;20041;-60
2022/09/07 08:26:19;;;;;;;21.45;14.93;;;;;;;;;;5038598;28;20511;-59
2022/09/07 08:28:46;;;;;;;23.38;14.68;;;;;;;;;;5043184;28;20029;-59
2022/09/07 08:31:14;;;;;;;21.65;15.50;;;;;;;;;;5041666;28;20130;-60
2022/09/07 08:33:40;;;;;;;20.40;13.70;;;;;;;;;;5042618;28;20120;-60
2022/09/07 08:36:08;;;;;;;19.55;13.45;;;;;;;;;;5040698;28;20673;-60
2022/09/07 08:38:35;;;;;;;19.10;13.45;;;;;;;;;;5040763;28;20041;-60
2022/09/07 08:41:02;;;;;;;20.15;12.57;;;;;;;;;;5041268;28;20683;-60
2022/09/07 08:43:33;;;;;;;20.02;12.27;;;;;;;;;;5042714;28;20130;-60
2022/09/07 08:46:05;;;;;;;18.55;11.60;;;;;;;;;;5041309;28;20508;-60
2022/09/07 08:48:34;;;;;;;17.73;12.23;;;;;;;;;;5039569;28;20089;-60
2022/09/07 08:51:11;;;;;;;18.17;12.43;;;;;;;;;;5042527;28;20053;-60
2022/09/07 08:53:41;;;;;;;18.05;12.60;;;;;;;;;;5041019;28;20037;-59
2022/09/07 08:56:12;;;;;;;16.23;11.75;;;;;;;;;;5041538;28;20584;-60
2022/09/07 08:58:46;;;;;;;19.40;13.05;;;;;;;;;;5041519;28;20064;-60
2022/09/07 09:01:13;;;;;;;22.08;12.73;;;;;;;;;;5042179;28;20128;-60
2022/09/07 09:03:40;;;;;;;16.75;11.57;;;;;;;;;;5040079;28;20057;-60
2022/09/07 09:06:26;;;;;;;18.00;11.63;;;;;;;;;;5041936;28;20223;-60
2022/09/07 09:09:01;;;;;;;18.05;11.55;;;;;;;;;;5039402;28;20052;-60
2022/09/07 09:11:54;;;;;;;16.02;11.60;;;;;;;;;;5041420;28;20045;-60
2022/09/07 09:14:28;;;;;;;14.43;9.63;;;;;;;;;;5039697;28;20073;-60
2022/09/07 09:16:59;;;;;;;14.05;10.20;;;;;;;;;;5040649;28;20430;-60
2022/09/07 09:19:32;;;;;;;14.10;9.70;;;;;;;;;;5040124;28;20037;-60
2022/09/07 09:22:08;;;;;;;13.13;9.70;;;;;;;;;;5041833;28;20119;-60
2022/09/07 09:24:36;;;;;;;13.75;9.73;;;;;;;;;;5038844;28;20033;-60
2022/09/07 09:27:02;;;;;;;14.70;9.07;;;;;;;;;;5039542;28;20037;-60
2022/09/07 09:29:29;;;;;;;13.63;9.27;;;;;;;;;;5042119;28;20072;-60
2022/09/07 09:31:55;;;;;;;13.40;9.25;;;;;;;;;;5040505;28;20087;-60
2022/09/07 09:34:21;;;;;;;13.63;9.95;;;;;;;;;;5040809;28;20045;-60
2022/09/07 09:36:49;;;;;;;11.88;9.35;;;;;;;;;;5035892;28;20044;-60
2022/09/07 09:39:26;;;;;;;15.02;9.27;;;;;;;;;;5040969;28;20044;-60
2022/09/07 09:41:54;;;;;;;14.13;9.63;;;;;;;;;;5038161;28;20091;-60
2022/09/07 09:44:21;;;;;;;13.40;8.88;;;;;;;;;;5040189;28;20044;-60
2022/09/07 09:46:48;;;;;;;15.63;9.13;;;;;;;;;;5036677;28;20048;-60
2022/09/07 09:49:14;;;;;;;11.18;9.07;;;;;;;;;;5038452;28;20461;-60
2022/09/07 09:51:42;;;;;;;12.05;9.57;;;;;;;;;;5040595;28;20064;-60
2022/09/07 09:54:21;;;;;;;12.48;8.18;;;;;;;;;;5039975;28;20037;-60
2022/09/07 09:56:48;;;;;;;12.05;7.70;;;;;;;;;;5039637;28;20124;-60
2022/09/07 09:59:15;;;;;;;10.73;7.75;;;;;;;;;;5039151;28;20041;-60
2022/09/07 10:01:42;;;;;;;10.43;7.50;;;;;;;;;;5039533;28;20688;-60
2022/09/07 10:04:29;;;;;;;11.00;6.95;;;;;;;;;;5038858;28;20037;-60
2022/09/07 10:06:57;;;;;;;11.75;7.75;;;;;;;;;;5039964;28;20047;-60
2022/09/07 10:09:26;;;;;;;10.88;7.40;;;;;;;;;;5040396;28;20060;-60
2022/09/07 10:11:54;;;;;;;10.20;6.63;;;;;;;;;;5035096;28;20159;-60
2022/09/07 10:14:25;;;;;;;8.30;6.45;;;;;;;;;;5038981;28;20513;-60
2022/09/07 10:16:52;;;;;;;9.85;6.50;;;;;;;;;;5040640;28;20040;-60
2022/09/07 10:19:30;;;;;;;10.88;6.65;;;;;;;;;;5038240;28;20037;-60
2022/09/07 10:21:56;;;;;;;9.05;6.00;;;;;;;;;;5039534;28;20041;-60
2022/09/07 10:24:25;;;;;;;9.40;6.57;;;;;;;;;;5039703;28;20494;-60
2022/09/07 10:26:51;;;;;;;10.77;6.60;;;;;;;;;;5040366;28;20090;-60
2022/09/07 10:29:29;;;;;;;8.77;6.60;;;;;;;;;;5035590;28;20052;-60
2022/09/07 10:31:56;;;;;;;11.75;7.18;;;;;;;;;;5038889;28;20101;-60
2022/09/07 10:34:28;;;;;;;10.13;6.20;;;;;;;;;;5037952;28;20185;-60
2022/09/07 10:37:03;;;;;;;9.07;6.60;;;;;;;;;;5040815;28;20049;-60
2022/09/07 10:39:33;;;;;;;11.82;6.60;;;;;;;;;;5037119;28;20041;-60
2022/09/07 10:42:08;;;;;;;8.95;6.20;;;;;;;;;;5038454;28;20043;-60
2022/09/07 10:44:41;;;;;;;9.90;5.93;;;;;;;;;;5037780;28;20041;-60
2022/09/07 10:47:31;;;;;;;9.07;5.75;;;;;;;;;;5040011;28;20093;-61
2022/09/07 10:50:02;;;;;;;9.52;5.85;;;;;;;;;;5037578;28;20076;-60
2022/09/07 10:52:36;;;;;;;8.35;5.78;;;;;;;;;;5040332;28;20698;-61
2022/09/07 10:55:19;;;;;;;10.80;6.40;;;;;;;;;;5034297;28;20070;-60
2022/09/07 10:57:53;;;;;;;20.70;6.80;;;;;;;;;;5037781;28;20114;-60
2022/09/07 11:00:21;;;;;;;11.70;7.18;;;;;;;;;;5037347;28;20045;-60
2022/09/07 11:03:16;;;;;;;10.70;6.70;;;;;;;;;;5036462;28;20044;-60
2022/09/07 11:05:48;;;;;;;12.73;6.25;;;;;;;;;;5033885;28;20044;-60
2022/09/07 11:08:32;;;;;;;13.90;6.82;;;;;;;;;;5037676;28;20053;-60
2022/09/07 11:10:58;;;;;;;15.20;7.32;;;;;;;;;;5027371;28;20045;-60
2022/09/07 11:13:27;;;;;;;10.80;6.75;;;;;;;;;;5034569;28;20033;-60
2022/09/07 11:15:56;;;;;;;11.07;6.22;;;;;;;;;;5030187;28;20060;-60
2022/09/07 11:18:26;;;;;;;9.65;5.53;;;;;;;;;;5032296;28;20045;-60
2022/09/07 11:20:54;;;;;;;7.00;4.68;;;;;;;;;;5032612;28;20168;-60
2022/09/07 11:23:41;;;;;;;10.57;6.93;;;;;;;;;;5029222;28;20642;-60
2022/09/07 11:26:17;;;;;;;8.48;5.10;;;;;;;;;;5027417;28;20103;-60
2022/09/07 11:28:43;;;;;;;12.13;6.03;;;;;;;;;;5035558;28;20045;-60
2022/09/07 11:31:15;;;;;;;8.40;4.97;;;;;;;;;;5035865;28;20498;-60
2022/09/07 11:33:47;;;;;;;8.88;5.28;;;;;;;;;;5034110;28;20524;-60
2022/09/07 11:36:15;;;;;;;10.07;6.13;;;;;;;;;;5036651;28;20049;-60
2022/09/07 11:38:41;;;;;;;;;;;;;;;;;;5037501;28;20045;-60
2022/09/07 11:41:19;;;;;;;12.18;6.00;;;;;;;;;;5033234;28;19924;-60
2022/09/07 11:43:47;;;;;;;10.27;5.75;;;;;;;;;;5036519;28;20049;-60
2022/09/07 11:46:17;;;;;;;12.73;6.50;;;;;;;;;;5031731;28;20041;-60
2022/09/07 11:48:46;;;;;;;12.77;7.10;;;;;;;;;;5030131;28;20125;-60
2022/09/07 11:51:21;;;;;;;10.07;6.30;;;;;;;;;;5038587;28;20037;-60
2022/09/07 11:53:50;;;;;;;8.20;5.57;;;;;;;;;;5036382;28;20114;-60
2022/09/07 11:56:20;;;;;;;10.63;6.55;;;;;;;;;;5036203;28;20450;-60
2022/09/07 11:58:56;;;;;;;8.93;4.82;;;;;;;;;;5033215;28;20033;-60
2022/09/07 12:01:31;;;;;;;12.73;4.80;;;;;;;;;;5032740;28;20106;-60
2022/09/07 12:04:11;;;;;;;10.40;4.68;;;;;;;;;;5029525;28;20728;-59
2022/09/07 12:06:47;;;;;;;7.65;3.30;;;;;;;;;;5035277;28;20087;-61
2022/09/07 12:09:16;;;;;;;8.15;4.18;;;;;;;;;;5037685;28;20110;-61
2022/09/07 12:11:54;;;;;;;11.18;4.80;;;;;;;;;;5038289;28;20114;-60
2022/09/07 12:14:36;;;;;;;7.82;5.00;;;;;;;;;;5034888;28;20037;-61
2022/09/07 12:17:11;;;;;;;11.18;5.35;;;;;;;;;;5038803;28;20479;-60
2022/09/07 12:19:37;;;;;;;9.07;5.10;;;;;;;;;;5039176;28;20093;-60
2022/09/07 12:22:04;;;;;;;12.40;6.03;;;;;;;;;;5028909;28;20053;-60
2022/09/07 12:24:38;;;;;;;9.48;5.10;;;;;;;;;;5035576;28;20036;-60
2022/09/07 12:27:25;;;;;;;10.60;5.10;;;;;;;;;;5032486;28;20120;-60
2022/09/07 12:29:57;;;;;;;7.05;4.10;;;;;;;;;;5038013;28;20040;-60
2022/09/07 12:32:41;;;;;;;8.05;4.18;;;;;;;;;;5034688;28;20049;-61
2022/09/07 12:35:29;;;;;;;8.27;4.43;;;;;;;;;;5035101;28;20045;-61
2022/09/07 12:37:56;;;;;;;8.07;4.50;;;;;;;;;;5037427;28;20045;-60
2022/09/07 12:40:27;;;;;;;7.28;4.50;;;;;;;;;;5031140;28;20655;-60
2022/09/07 12:43:11;;;;;;;6.60;4.00;;;;;;;;;;5035606;28;20056;-60
2022/09/07 12:45:38;;;;;;;7.22;3.92;;;;;;;;;;5033718;28;20110;-60
2022/09/07 12:48:10;;;;;;;7.28;3.58;;;;;;;;;;5036860;28;20040;-60
2022/09/07 12:50:43;;;;;;;7.30;3.28;;;;;;;;;;5037567;28;20053;-60
2022/09/07 12:53:12;;;;;;;6.00;3.60;;;;;;;;;;5036564;28;20148;-60
2022/09/07 12:56:14;;;;;;;8.48;2.90;;;;;;;;;;5030987;28;20060;-60
2022/09/07 12:58:45;;;;;;;6.97;2.92;;;;;;;;;;5033776;28;20513;-60
2022/09/07 13:01:20;;;;;;;7.28;3.83;;;;;;;;;;5032644;28;20060;-60
2022/09/07 13:03:59;;;;;;;4.90;3.20;;;;;;;;;;5035641;28;20041;-60
2022/09/07 13:06:33;;;;;;;5.55;3.22;;;;;;;;;;5034691;28;20074;-60
2022/09/07 13:09:19;;;;;;;7.15;3.25;;;;;;;;;;5033766;28;20750;-60
2022/09/07 13:11:46;;;;;;;5.85;3.30;;;;;;;;;;5033056;28;20107;-60
2022/09/07 13:14:13;;;;;;;4.13;2.83;;;;;;;;;;5035075;28;20128;-60
2022/09/07 13:16:40;;;;;;;6.93;2.88;;;;;;;;;;5034360;28;20051;-61
2022/09/07 13:19:13;;;;;;;6.00;3.00;;;;;;;;;;5038154;28;20037;-61
2022/09/07 13:21:41;;;;;;;5.85;2.65;;;;;;;;;;5028873;28;20045;-60
2022/09/07 13:24:07;;;;;;;;;;;;;;;;;;5034804;28;20048;-60
2022/09/07 13:26:51;;;;;;;6.07;3.10;;;;;;;;;;5030307;28;19925;-61
2022/09/07 13:29:19;;;;;;;3.92;2.40;;;;;;;;;;5030249;28;20704;-60
2022/09/07 13:32:02;;;;;;;8.25;2.63;;;;;;;;;;5027238;28;20045;-61
2022/09/07 13:34:36;;;;;;;6.50;2.75;;;;;;;;;;5030101;28;20045;-60
2022/09/07 13:37:06;;;;;;;4.57;2.63;;;;;;;;;;5035788;28;20056;-60
2022/09/07 13:39:38;;;;;;;4.93;2.83;;;;;;;;;;5035894;28;21511;-60
2022/09/07 13:42:05;;;;;;;4.70;2.42;;;;;;;;;;5030313;28;20049;-60
2022/09/07 13:44:32;;;;;;;4.13;2.50;;;;;;;;;;5035746;28;20052;-60
2022/09/07 13:47:07;;;;;;;7.63;2.72;;;;;;;;;;5034961;28;20044;-59
2022/09/07 13:49:33;;;;;;;6.25;2.70;;;;;;;;;;5025755;28;20060;-60
2022/09/07 13:52:00;;;;;;;6.70;2.40;;;;;;;;;;5034132;28;20060;-60
2022/09/07 13:54:33;;;;;;;5.10;2.13;;;;;;;;;;5035056;28;20049;-60
2022/09/07 13:57:05;;;;;;;3.92;2.22;;;;;;;;;;5037084;28;20044;-60
2022/09/07 13:59:33;;;;;;;6.72;2.03;;;;;;;;;;5030492;28;20052;-60
2022/09/07 14:01:59;;;;;;;;;;;;;;;;;;5033736;28;20079;-60
2022/09/07 14:04:29;;;;;;;5.88;2.65;;;;;;;;;;5034742;28;19925;-60
2022/09/07 14:07:02;;;;;;;5.10;2.35;;;;;;;;;;5037919;28;20332;-61
2022/09/07 14:09:29;;;;;;;6.70;2.47;;;;;;;;;;5034705;28;20576;-60
2022/09/07 14:11:55;;;;;;;9.40;2.60;;;;;;;;;;5036474;28;20070;-60
2022/09/07 14:14:28;;;;;;;7.75;2.70;;;;;;;;;;5031407;28;20053;-60
2022/09/07 14:16:54;;;;;;;10.55;3.10;;;;;;;;;;5012002;28;20049;-60
2022/09/07 14:19:23;;;;;;;12.13;3.42;;;;;;;;;;5034182;28;20088;-60
2022/09/07 14:21:56;;;;;;;4.00;2.47;;;;;;;;;;5031476;28;20160;-60
2022/09/07 14:24:28;;;;;;;6.30;2.50;;;;;;;;;;5034828;28;20037;-60
2022/09/07 14:26:55;;;;;;;4.82;2.65;;;;;;;;;;5038187;28;20060;-60
2022/09/07 14:29:22;;;;;;;3.60;2.00;;;;;;;;;;5036412;28;20052;-60
2022/09/07 14:31:49;;;;;;;8.75;2.45;;;;;;;;;;5029767;28;20048;-60
2022/09/07 14:34:17;;;;;;;5.47;2.17;;;;;;;;;;5030325;28;20033;-60
2022/09/07 14:36:45;;;;;;;3.10;1.73;;;;;;;;;;5035123;28;20084;-59
2022/09/07 14:39:12;;;;;;;4.85;2.00;;;;;;;;;;5028566;28;20064;-59
2022/09/07 14:41:40;;;;;;;5.95;2.22;;;;;;;;;;5034518;28;20094;-59
2022/09/07 14:44:06;;;;;;;;;;;;;;;;;;5029579;28;20501;-59
2022/09/07 14:46:33;;;;;;;29.80;4.35;;;;;;;;;;5031276;28;20674;-59